Time;durP1;ratioP1;P1;durP2;ratioP2;P2;SDS_P1;SDS_P2;PMS_P1;PMS_P2;Temp;Humidity;BMP_temperature;BMP_pressure;BME280_temperature;BME280_humidity;BME280_pressure;Samples;Min_cycle;Max_cycle;Signal;HPM_P1;HPM_P2
2022/02/09 00:06:39;;;;;;;37.30;5.50;;;5.30;99.90;;;3.83;100.00;101600.81;4834065;28;20488;-82
2022/02/09 00:09:05;;;;;;;26.60;5.05;;;5.40;99.90;;;3.89;100.00;101589.50;4826702;28;20076;-82
2022/02/09 00:11:39;;;;;;;31.63;5.18;;;5.40;99.90;;;3.99;100.00;101596.38;4824194;28;20029;-81
2022/02/09 00:14:21;;;;;;;32.17;5.10;;;5.50;99.90;;;4.10;100.00;101596.31;4862853;28;20613;-83
2022/02/09 00:19:33;;;;;;;35.03;4.82;;;5.60;99.90;;;4.30;100.00;101606.63;4843388;28;20387;-81
2022/02/09 00:33:13;;;;;;;22.00;3.90;;;6.10;99.90;;;4.76;100.00;101608.03;4845232;28;20039;-81
2022/02/09 01:11:30;;;;;;;15.98;2.47;;;6.80;99.90;;;5.49;100.00;101615.13;4891938;28;20579;-77
2022/02/09 01:56:56;;;;;;;8.85;1.60;;;7.40;99.90;;;6.05;100.00;101597.03;4892527;28;20429;-78
2022/02/09 01:59:23;;;;;;;11.68;1.60;;;7.40;99.90;;;6.11;100.00;101596.06;4873766;28;20027;-77
2022/02/09 02:01:49;;;;;;;12.13;1.63;;;7.50;99.90;;;6.12;100.00;101592.59;4905598;28;20031;-78
2022/02/09 02:04:15;;;;;;;7.82;1.30;;;7.50;99.90;;;6.12;100.00;101579.50;4883373;28;20028;-78
2022/02/09 02:06:44;;;;;;;17.42;1.73;;;7.50;99.90;;;6.14;100.00;101577.75;4877476;28;20032;-78
2022/02/09 02:09:11;;;;;;;15.82;2.20;;;7.50;99.90;;;6.16;100.00;101571.59;4876859;28;20040;-79
2022/02/09 02:12:16;;;;;;;9.88;1.80;;;7.50;99.90;;;6.17;100.00;101567.22;4892247;28;20040;-77
2022/02/09 02:14:41;;;;;;;9.98;2.13;;;7.60;99.90;;;6.16;100.00;101566.38;4897806;28;20043;-79
2022/02/09 02:17:22;;;;;;;15.75;2.08;;;7.60;99.90;;;6.18;100.00;101560.22;4892887;28;20031;-77
2022/02/09 02:19:57;;;;;;;18.40;2.67;;;7.60;99.90;;;6.19;100.00;101556.75;4867161;28;22126;-77
2022/02/09 02:41:32;;;;;;;19.60;6.13;;;7.60;99.90;;;6.22;100.00;101544.50;4893237;28;20510;-78
2022/02/09 03:10:35;;;;;;;23.92;10.50;;;8.10;99.90;;;6.65;100.00;101511.50;4873345;28;20066;-79
2022/02/09 03:13:02;;;;;;;23.23;9.88;;;8.10;99.90;;;6.68;100.00;101516.72;4889702;28;20098;-79
2022/02/09 03:20:53;;;;;;;20.80;9.10;;;8.20;99.90;;;6.78;100.00;101500.81;4886772;28;20025;-78
2022/02/09 03:44:52;;;;;;;19.67;8.43;;;8.50;99.90;;;7.07;100.00;101499.38;4897394;28;20105;-77
2022/02/09 03:57:55;;;;;;;25.05;9.55;;;8.60;99.90;;;7.21;100.00;101483.38;4890021;28;20027;-77
2022/02/09 04:00:25;;;;;;;22.38;9.52;;;8.60;99.90;;;7.23;100.00;101481.59;4876438;28;20019;-78
2022/02/09 04:02:55;;;;;;;21.17;10.00;;;8.60;99.90;;;7.28;100.00;101484.09;4892681;29;20025;-78
2022/02/09 04:05:21;;;;;;;24.67;10.20;;;8.70;99.90;;;7.33;100.00;101482.28;4874805;28;20049;-78
2022/02/09 04:07:55;;;;;;;26.40;9.82;;;8.70;99.90;;;7.35;100.00;101472.63;4915297;28;20036;-79
2022/02/09 04:10:26;;;;;;;22.40;10.35;;;8.70;99.90;;;7.38;100.00;101477.78;4875434;28;20461;-77
2022/02/09 04:16:03;;;;;;;23.30;10.68;;;8.80;99.90;;;7.45;100.00;101461.06;4890498;28;20030;-77
2022/02/09 04:40:30;;;;;;;41.67;14.60;;;9.10;99.90;;;7.72;100.00;101459.56;4970484;28;20002;-78
2022/02/09 04:51:20;;;;;;;45.20;16.30;;;9.20;99.90;;;7.80;100.00;101452.38;4894787;28;20134;-79
2022/02/09 04:59:29;;;;;;;52.00;18.50;;;9.30;99.90;;;7.87;100.00;101454.88;4901502;28;20032;-79
2022/02/09 05:28:44;;;;;;;40.88;17.08;;;9.40;99.90;;;7.96;100.00;101420.56;4865439;28;20131;-78
2022/02/09 05:31:10;;;;;;;38.80;16.55;;;9.40;99.90;;;7.96;100.00;101417.94;4860531;28;20090;-77
2022/02/09 05:33:37;;;;;;;34.08;16.02;;;9.40;99.90;;;7.98;100.00;101427.47;4904492;28;20039;-79
2022/02/09 05:36:09;;;;;;;31.95;15.82;;;9.40;99.90;;;8.00;100.00;101427.44;4878917;28;20090;-78
2022/02/09 05:38:35;;;;;;;36.05;15.95;;;9.40;99.90;;;7.99;100.00;101418.72;4882221;28;20094;-77
2022/02/09 05:41:00;;;;;;;29.15;14.75;;;9.40;99.90;;;8.00;100.00;101411.72;4861171;28;20489;-77
2022/02/09 05:43:27;;;;;;;31.02;14.98;;;9.40;99.90;;;8.02;100.00;101410.75;4890240;28;20032;-77
2022/02/09 05:46:25;;;;;;;27.50;13.68;;;9.40;99.90;;;8.02;100.00;101402.91;4892907;28;20404;-78
2022/02/09 05:51:40;;;;;;;30.90;14.27;;;9.40;99.90;;;8.05;100.00;101401.09;4904273;28;20066;-79
2022/02/09 06:01:37;;;;;;;24.25;12.27;;;9.50;99.90;;;8.04;100.00;101397.63;4861128;28;20043;-78
2022/02/09 06:04:06;;;;;;;23.08;11.77;;;9.50;99.90;;;8.06;100.00;101392.34;4899456;28;20035;-77
2022/02/09 06:06:32;;;;;;;20.55;11.32;;;9.50;99.90;;;8.07;100.00;101394.06;4893578;28;20031;-78
2022/02/09 06:09:00;;;;;;;18.98;11.27;;;9.50;99.90;;;8.08;100.00;101390.50;4887927;28;20097;-78
2022/02/09 06:11:50;;;;;;;20.63;12.10;;;9.50;99.90;;;8.12;100.00;101394.78;4882580;28;20036;-77
2022/02/09 06:14:43;;;;;;;18.23;11.27;;;9.50;99.90;;;8.13;100.00;101393.91;4884680;28;20034;-78
2022/02/09 06:19:56;;;;;;;16.35;10.23;;;9.50;99.90;;;8.12;100.00;101403.53;4885967;28;20039;-77
2022/02/09 06:22:23;;;;;;;17.30;9.98;;;9.50;99.90;;;8.15;100.00;101407.84;4896331;28;20024;-77
2022/02/09 06:24:50;;;;;;;15.45;10.13;;;9.50;99.90;;;8.12;100.00;101408.78;4870189;28;20032;-78
2022/02/09 06:27:16;;;;;;;14.23;9.02;;;9.50;99.90;;;8.16;100.00;101399.94;4878124;28;20547;-78
2022/02/09 06:29:47;;;;;;;17.10;8.88;;;9.50;99.90;;;8.14;100.00;101388.63;4905702;28;20070;-79
2022/02/09 06:32:16;;;;;;;14.32;9.35;;;9.50;99.90;;;8.13;100.00;101355.41;4899633;28;20420;-77
2022/02/09 06:34:43;;;;;;;14.80;8.82;;;9.50;99.90;;;8.15;100.00;101371.13;4900416;28;20035;-78
2022/02/09 06:37:26;;;;;;;12.38;8.60;;;9.50;99.90;;;8.16;100.00;101389.44;4873342;28;20432;-79
2022/02/09 06:40:01;;;;;;;10.45;7.72;;;9.50;99.90;;;8.15;100.00;101410.47;4877495;28;20031;-78
2022/02/09 06:42:29;;;;;;;12.27;7.90;;;9.50;99.90;;;8.15;100.00;101402.59;4871442;28;20115;-77
2022/02/09 06:44:59;;;;;;;13.52;8.80;;;9.50;99.90;;;8.17;100.00;101413.91;4888687;28;20031;-78
2022/02/09 06:47:28;;;;;;;11.05;7.90;;;9.60;99.90;;;8.17;100.00;101406.91;4893522;28;20048;-78
2022/02/09 06:50:06;;;;;;;12.77;8.43;;;9.60;99.90;;;8.17;100.00;101411.28;4893440;28;20023;-78
2022/02/09 06:52:32;;;;;;;9.68;7.22;;;9.60;99.90;;;8.18;100.00;101423.50;4886224;28;20082;-78
2022/02/09 06:55:17;;;;;;;10.85;7.82;;;9.60;99.90;;;8.19;100.00;101412.97;4881124;28;20217;-78
2022/02/09 06:58:16;;;;;;;10.10;7.15;;;9.50;99.90;;;8.19;100.00;101414.72;4903196;28;20510;-79
2022/02/09 07:00:34;;;;;;;12.25;7.13;;;9.50;99.90;;;8.17;100.00;101406.91;4901693;28;20043;-78
2022/02/09 07:03:00;;;;;;;9.30;7.07;;;9.50;99.90;;;8.17;100.00;101406.91;4897472;28;20135;-80
2022/02/09 07:05:26;;;;;;;12.88;7.40;;;9.60;99.90;;;8.18;100.00;101413.84;4897674;28;20016;-78
2022/02/09 07:07:52;;;;;;;10.48;7.35;;;9.60;99.90;;;8.16;100.00;101420.94;4888122;28;20048;-77
2022/02/09 07:10:18;;;;;;;11.48;7.45;;;9.50;99.90;;;8.15;100.00;101423.59;4855861;29;20456;-79
2022/02/09 07:12:44;;;;;;;11.55;7.40;;;9.50;99.90;;;8.16;100.00;101418.31;4886207;28;20044;-77
2022/02/09 07:15:16;;;;;;;10.43;7.00;;;9.50;99.90;;;8.16;100.00;101420.03;4881665;28;20400;-78
2022/02/09 07:17:44;;;;;;;12.82;6.43;;;9.50;99.90;;;8.13;100.00;101412.25;4857694;28;20523;-78
2022/02/09 07:20:25;;;;;;;10.27;6.82;;;9.50;99.90;;;8.16;100.00;101414.78;4877207;28;20065;-77
2022/02/09 07:22:54;;;;;;;13.15;7.15;;;9.60;99.90;;;8.16;100.00;101409.56;4909246;28;20407;-77
2022/02/09 07:25:30;;;;;;;10.18;7.13;;;9.60;99.90;;;8.15;100.00;101408.69;4901250;28;20027;-79
2022/02/09 07:27:56;;;;;;;14.52;8.00;;;9.60;99.90;;;8.15;100.00;101410.47;4909896;28;20043;-78
2022/02/09 07:30:27;;;;;;;16.25;8.65;;;9.50;99.90;;;8.16;100.00;101415.69;4912430;28;20029;-78
2022/02/09 07:33:01;;;;;;;19.00;9.75;;;9.60;99.90;;;8.17;100.00;101416.53;4890890;28;20023;-77
2022/02/09 07:35:29;;;;;;;17.95;9.30;;;9.60;99.90;;;8.17;100.00;101409.53;4890297;28;20047;-77
2022/02/09 07:37:55;;;;;;;15.68;9.70;;;9.60;99.90;;;8.11;100.00;101407.03;4881858;28;20023;-78
2022/02/09 07:40:24;;;;;;;18.98;10.90;;;9.50;99.90;;;8.12;100.00;101407.91;4881138;28;20020;-80
2022/02/09 07:42:57;;;;;;;21.35;12.00;;;9.60;99.90;;;8.11;100.00;101409.66;4873322;28;20127;-77
2022/02/09 07:45:42;;;;;;;23.50;11.80;;;9.50;99.90;;;8.12;100.00;101397.41;4876774;28;20027;-79
2022/02/09 07:50:50;;;;;;;24.20;12.30;;;9.60;99.90;;;8.16;100.00;101399.06;4901897;28;20051;-79
2022/02/09 07:53:25;;;;;;;24.52;13.55;;;9.50;99.90;;;8.15;100.00;101411.31;4897048;28;20044;-77
2022/02/09 07:55:51;;;;;;;30.75;13.70;;;9.50;99.90;;;8.15;100.00;101413.94;4865315;28;21492;-79
2022/02/09 07:58:17;;;;;;;25.05;13.82;;;9.60;99.90;;;8.16;100.00;101406.94;4890858;28;20035;-79
2022/02/09 08:00:45;;;;;;;27.45;13.93;;;9.60;99.90;;;8.16;100.00;101406.94;4864976;28;20411;-77
2022/02/09 08:03:11;;;;;;;28.02;13.98;;;9.50;99.90;;;8.20;100.00;101403.31;4870667;28;20063;-78
2022/02/09 08:05:37;;;;;;;23.88;13.43;;;9.60;99.90;;;8.19;100.00;101404.25;4902847;28;20032;-78
2022/02/09 08:08:04;;;;;;;27.85;13.32;;;9.40;99.90;;;8.21;100.00;101407.69;4876422;28;20435;-79
2022/02/09 08:10:49;;;;;;;23.63;13.25;;;9.60;99.90;;;8.19;100.00;101410.34;4879563;28;20123;-78
2022/02/09 08:27:56;;;;;;;19.00;11.10;;;9.60;99.90;;;8.21;100.00;101391.94;4883538;28;20030;-78
2022/02/09 08:32:42;;;;;;;21.80;11.55;;;9.60;99.90;;;8.22;100.00;101393.66;4900798;28;20584;-79
2022/02/09 08:35:09;;;;;;;21.40;11.27;;;9.60;99.90;;;8.24;100.00;101381.34;4892102;28;20036;-78
2022/02/09 08:37:35;;;;;;;19.52;10.38;;;9.60;99.90;;;8.27;100.00;101385.66;4873088;28;20052;-78
2022/02/09 08:40:04;;;;;;;17.30;11.40;;;9.60;99.90;;;8.31;100.00;101395.19;4862109;28;20115;-78
2022/02/09 08:42:29;;;;;;;19.92;11.48;;;9.70;99.90;;;8.30;100.00;101388.22;4871152;28;20496;-78
2022/02/09 08:44:58;;;;;;;17.95;10.90;;;9.70;99.90;;;8.30;100.00;101381.19;4858661;28;20051;-79
2022/02/09 08:47:23;;;;;;;18.55;11.15;;;9.70;99.90;;;8.35;100.00;101379.31;4898804;28;20040;-79
2022/02/09 08:49:49;;;;;;;20.08;11.57;;;9.70;99.90;;;8.37;100.00;101392.41;4890786;28;20032;-78
2022/02/09 08:52:15;;;;;;;16.63;10.23;;;9.70;99.90;;;8.40;100.00;101384.41;4879381;28;20019;-78
2022/02/09 08:54:42;;;;;;;21.88;10.77;;;9.70;99.90;;;8.47;100.00;101385.19;4894135;28;20078;-79
2022/02/09 08:57:10;;;;;;;17.75;10.25;;;9.80;99.90;;;8.48;100.00;101384.25;4876345;28;20078;-79
2022/02/09 08:59:39;;;;;;;19.83;10.63;;;9.80;99.90;;;8.54;100.00;101384.09;4866591;28;20020;-78
2022/02/09 09:02:08;;;;;;;16.70;10.68;;;9.90;99.90;;;8.56;100.00;101388.41;4887232;28;20032;-79
2022/02/09 09:04:40;;;;;;;22.88;10.52;;;9.90;99.90;;;8.60;100.00;101381.31;4879310;28;20047;-78
2022/02/09 09:07:11;;;;;;;22.77;10.95;;;9.90;99.90;;;8.62;100.00;101382.13;4880347;28;20030;-79
2022/02/09 09:15:45;;;;;;;20.88;11.27;;;9.90;99.90;;;8.53;100.00;101399.00;4894216;28;20035;-78
2022/02/09 10:01:46;;;;;;;18.65;10.48;;;9.80;99.90;;;8.47;100.00;101393.06;4868867;28;20024;-78
2022/02/09 10:34:18;;;;;;;21.67;9.80;;;9.80;99.90;;;8.40;100.00;101402.78;4874008;28;20062;-78
2022/02/09 10:36:57;;;;;;;19.30;9.13;;;9.80;99.90;;;8.40;100.00;101392.28;4875293;28;20111;-79
2022/02/09 10:39:33;;;;;;;16.00;8.82;;;9.70;99.90;;;8.43;100.00;101396.66;4856731;28;20084;-77
2022/02/09 10:44:55;;;;;;;14.07;8.85;;;9.80;99.90;;;8.45;100.00;101371.25;4890574;28;20110;-78
2022/02/09 10:47:34;;;;;;;15.73;9.48;;;9.80;99.90;;;8.46;100.00;101317.84;4860194;29;20423;-78
2022/02/09 10:50:31;;;;;;;15.38;8.57;;;9.80;99.90;;;8.39;100.00;101362.56;4876288;28;20041;-80
2022/02/09 10:53:02;;;;;;;19.38;8.15;;;9.80;99.90;;;8.44;100.00;101401.00;4843644;29;20070;-79
2022/02/09 10:55:46;;;;;;;13.90;8.38;;;9.80;99.90;;;8.45;100.00;101408.84;4865178;28;20421;-81
2022/02/09 10:58:21;;;;;;;16.40;7.78;;;9.80;99.90;;;8.48;100.00;101402.63;4891879;28;20031;-80
2022/02/09 11:00:50;;;;;;;13.10;8.45;;;9.80;99.90;;;8.51;100.00;101415.66;4863137;28;20029;-80
2022/02/09 11:03:27;;;;;;;15.73;7.78;;;9.90;99.90;;;8.72;100.00;101415.06;4882862;28;20122;-80
2022/02/09 11:05:58;;;;;;;15.40;8.25;;;10.10;99.90;;;9.11;100.00;101409.56;4866569;28;20032;-81
2022/02/09 11:08:27;;;;;;;9.80;7.22;;;10.30;99.90;;;9.49;100.00;101406.72;4883944;28;20040;-79
2022/02/09 11:10:56;;;;;;;13.80;7.90;;;10.60;99.90;;;9.82;100.00;101407.41;4863659;28;20067;-80
2022/02/09 11:13:22;;;;;;;14.10;7.53;;;10.80;99.90;;;9.94;100.00;101404.38;4882045;28;20031;-79
2022/02/09 11:15:54;;;;;;;10.90;6.97;;;10.90;99.90;;;9.79;100.00;101411.00;4857621;28;20050;-80
2022/02/09 11:18:22;;;;;;;12.23;7.10;;;10.90;99.90;;;9.65;100.00;101410.56;4830527;28;20028;-79
2022/02/09 11:21:13;;;;;;;10.07;6.90;;;10.80;99.90;;;9.48;100.00;101403.22;4863746;28;20034;-80
2022/02/09 11:23:55;;;;;;;17.30;7.97;;;10.50;99.90;;;9.47;100.00;101396.25;4866046;28;20380;-80
2022/02/09 11:26:58;;;;;;;17.65;7.72;;;10.80;99.90;;;9.54;100.00;101403.00;4872750;28;20442;-80
2022/02/09 11:29:44;;;;;;;17.88;7.80;;;10.80;99.90;;;9.58;100.00;101407.28;4896357;28;20040;-80
2022/02/09 11:35:27;;;;;;;18.77;7.57;;;11.00;99.90;;;10.07;100.00;101389.03;4831259;28;20058;-80
2022/02/09 11:38:24;;;;;;;;;;;11.10;99.90;;;10.10;100.00;101388.06;4881935;28;20129;-81
2022/02/09 11:41:06;;;;;;;17.48;7.95;;;11.20;99.90;;;10.11;100.00;101388.03;4891378;28;20021;-80
2022/02/09 12:09:52;;;;;;;12.70;7.63;;;11.50;99.90;;;10.16;100.00;101391.34;4877241;28;20051;-80
2022/02/09 12:12:25;;;;;;;13.52;7.57;;;11.40;99.90;;;9.95;100.00;101390.28;4888408;28;20085;-80
2022/02/09 12:15:41;;;;;;;16.05;7.30;;;11.30;99.90;;;9.74;100.00;101385.75;4877003;28;20071;-80
2022/02/09 12:18:23;;;;;;;15.65;7.13;;;11.10;99.90;;;9.48;100.00;101386.56;4890141;28;20058;-80
2022/02/09 12:20:59;;;;;;;13.88;7.00;;;10.90;99.90;;;9.46;100.00;101386.66;4850097;28;20082;-80
2022/02/09 12:23:41;;;;;;;12.52;6.70;;;10.90;99.90;;;9.44;100.00;101383.22;4860978;29;20451;-80
2022/02/09 12:26:17;;;;;;;12.07;6.93;;;10.80;99.90;;;9.42;100.00;101385.03;4896158;28;20091;-81
2022/02/09 12:29:01;;;;;;;13.48;6.65;;;10.80;99.90;;;9.48;100.00;101382.22;4852231;28;20062;-79
2022/02/09 12:31:37;;;;;;;11.15;5.78;;;10.80;99.90;;;9.50;100.00;101374.25;4866068;28;20028;-79
2022/02/09 12:34:07;;;;;;;10.52;5.68;;;10.80;99.90;;;9.49;100.00;101381.28;4899797;28;20035;-80
2022/02/09 12:36:41;;;;;;;10.52;5.88;;;10.80;99.90;;;9.51;100.00;101378.63;4856262;28;20031;-80
2022/02/09 12:39:12;;;;;;;11.57;5.90;;;10.80;99.90;;;9.45;100.00;101379.66;4870730;28;20031;-80
2022/02/09 12:41:44;;;;;;;11.80;5.93;;;10.80;99.90;;;9.40;100.00;101381.59;4885090;28;20404;-80
2022/02/09 12:44:13;;;;;;;11.55;5.43;;;10.80;99.90;;;9.34;100.00;101382.63;4916903;28;20053;-80
2022/02/09 12:46:43;;;;;;;12.55;6.05;;;10.70;99.90;;;9.32;100.00;101378.31;4871863;28;20035;-80
2022/02/09 12:49:18;;;;;;;10.40;5.32;;;10.70;99.90;;;9.25;100.00;101325.09;4852042;29;20532;-80
2022/02/09 12:51:54;;;;;;;20.77;5.78;;;10.60;99.90;;;9.22;100.00;101315.56;4853975;29;20419;-80
2022/02/09 12:54:23;;;;;;;9.90;5.22;;;;;;;9.21;100.00;101392.66;4820771;28;20058;-80
2022/02/09 12:56:56;;;;;;;11.38;5.78;;;10.60;99.90;;;9.18;100.00;101371.72;4868159;29;20508;-79
2022/02/09 12:59:28;;;;;;;9.32;6.00;;;10.50;99.90;;;9.14;100.00;101380.59;4887839;28;20033;-80
2022/02/09 13:02:03;;;;;;;9.32;5.38;;;10.50;99.90;;;9.16;100.00;101336.75;4854012;28;20558;-81
2022/02/09 13:04:41;;;;;;;10.43;5.40;;;10.50;99.90;;;9.11;100.00;101298.38;4866260;28;20044;-80
2022/02/09 13:07:20;;;;;;;10.10;5.50;;;10.50;99.90;;;9.09;100.00;101324.69;4869153;28;20446;-80
2022/02/09 13:09:56;;;;;;;9.13;5.53;;;10.50;99.90;;;9.09;100.00;101361.47;4857543;28;20128;-80
2022/02/09 13:12:27;;;;;;;11.77;4.90;;;10.50;99.90;;;9.08;100.00;101343.16;4905035;28;20547;-81
2022/02/09 13:15:00;;;;;;;10.52;5.60;;;10.50;99.90;;;9.02;100.00;101352.91;4872785;28;20030;-81
2022/02/09 13:18:17;;;;;;;8.57;5.00;;;10.40;99.90;;;9.02;100.00;101363.44;4837717;28;20034;-81
2022/02/09 14:18:10;;;;;;;8.38;4.70;;;10.20;99.90;;;8.86;100.00;101353.44;4854149;28;20047;-80
2022/02/09 14:58:23;;;;;;;8.30;5.97;;;10.00;99.90;;;8.57;100.00;101368.25;4879903;28;20055;-80
2022/02/09 15:03:53;;;;;;;8.90;6.03;;;9.90;99.90;;;8.50;100.00;101374.59;4893511;28;20501;-80
2022/02/09 15:09:45;;;;;;;8.35;5.63;;;9.80;99.90;;;8.46;100.00;101365.06;4837038;28;20526;-81
2022/02/09 15:12:19;;;;;;;13.07;7.07;;;9.80;99.90;;;8.44;100.00;101353.75;4897311;28;20047;-80
2022/02/09 15:15:04;;;;;;;10.30;6.68;;;9.80;99.90;;;8.44;100.00;101365.09;4900664;28;20023;-79
2022/02/09 15:22:38;;;;;;;10.93;6.60;;;9.80;99.90;;;8.35;100.00;101350.44;4873931;28;20031;-79
2022/02/09 15:25:13;;;;;;;8.18;6.43;;;9.80;99.90;;;8.38;100.00;101353.00;4888924;28;20035;-79
2022/02/09 15:27:39;;;;;;;10.07;6.10;;;9.80;99.90;;;8.40;100.00;101359.09;4872535;28;20458;-80
2022/02/09 15:30:07;;;;;;;10.85;5.60;;;9.80;99.90;;;8.43;100.00;101359.91;4857132;28;20111;-80
2022/02/09 15:32:44;;;;;;;13.18;5.60;;;9.80;99.90;;;8.42;100.00;101359.03;4909491;28;20059;-79
2022/02/09 15:38:01;;;;;;;8.13;5.50;;;9.70;99.90;;;8.38;100.00;101368.75;4902410;28;20632;-80
2022/02/09 15:40:41;;;;;;;9.38;5.60;;;9.70;99.90;;;8.36;100.00;101369.69;4845429;28;20023;-79
2022/02/09 15:43:27;;;;;;;8.13;5.70;;;9.80;99.90;;;8.36;100.00;101362.66;4858065;28;20045;-79
2022/02/09 16:06:44;;;;;;;8.10;5.20;;;9.70;99.90;;;8.26;100.00;101369.06;4859012;28;20101;-80
2022/02/09 16:09:31;;;;;;;7.50;4.82;;;9.60;99.90;;;8.26;100.00;101376.94;4880633;28;20110;-80
2022/02/09 16:46:51;;;;;;;7.90;5.82;;;9.50;99.90;;;8.09;100.00;101377.38;4852060;28;20105;-83
2022/02/09 16:52:19;;;;;;;10.38;7.35;;;9.50;99.90;;;8.03;100.00;101348.69;4858804;28;20110;-80
2022/02/09 16:55:17;;;;;;;9.80;6.82;;;9.50;99.90;;;8.01;100.00;101361.84;4893637;23;20132;-81
2022/02/09 17:19:57;;;;;;;37.53;21.85;;;9.30;99.90;;;7.83;100.00;101419.97;4918220;28;20118;-84
2022/02/09 17:22:23;;;;;;;32.63;21.00;;;9.30;99.90;;;7.86;100.00;101427.78;4908442;28;20026;-86
2022/02/09 17:24:49;;;;;;;23.75;16.02;;;;;;;7.86;100.00;101425.16;4920110;28;20022;-85
2022/02/09 17:27:28;;;;;;;26.17;16.35;;;9.30;99.90;;;7.87;100.00;101426.03;4940227;28;20046;-84
2022/02/09 17:33:04;;;;;;;23.65;14.27;;;9.30;99.90;;;7.84;100.00;101433.94;4934254;28;20504;-85
2022/02/09 17:35:36;;;;;;;21.75;13.63;;;9.30;99.90;;;7.84;100.00;101413.84;4928899;28;20024;-83
2022/02/09 17:38:25;;;;;;;32.97;18.35;;;9.30;99.90;;;7.83;100.00;101421.75;4928195;28;20063;-84
2022/02/09 17:57:51;;;;;;;9.77;7.25;;;9.20;99.90;;;7.77;100.00;101417.50;4908765;28;20054;-85
2022/02/09 18:00:28;;;;;;;12.13;7.82;;;9.20;99.90;;;7.72;100.00;101425.47;4927195;28;20389;-84
2022/02/09 18:02:55;;;;;;;7.90;6.40;;;9.10;99.90;;;7.72;100.00;101417.63;4921896;28;20150;-88
2022/02/09 18:05:25;;;;;;;6.80;5.43;;;9.10;99.90;;;7.68;100.00;101429.06;4938142;28;20033;-86
2022/02/09 18:07:58;;;;;;;5.75;4.57;;;9.10;99.90;;;7.67;100.00;101423.88;4925450;28;20569;-85
2022/02/09 19:04:00;;;;;;;7.18;4.75;;;8.40;99.90;;;6.93;100.00;101442.06;4882252;28;19907;-84
2022/02/09 19:17:59;;;;;;;14.13;7.90;;;8.10;99.90;;;6.69;100.00;101446.00;4946679;28;20564;-83
2022/02/09 19:31:37;;;;;;;12.00;5.78;;;7.80;99.90;;;6.27;100.00;101448.50;4949872;28;20030;-86
2022/02/09 19:47:45;;;;;;;14.90;5.53;;;7.40;99.90;;;5.88;100.00;101445.63;4941303;28;20041;-77
2022/02/09 19:55:57;;;;;;;18.40;4.05;;;7.20;99.90;;;5.72;100.00;101462.41;4989628;28;20057;-76
2022/02/09 19:58:34;;;;;;;19.02;4.30;;;7.20;99.90;;;5.68;100.00;101458.13;4988648;28;20405;-78
2022/02/09 20:01:08;;;;;;;14.40;3.80;;;7.10;99.90;;;5.61;100.00;101459.09;4991372;28;20035;-79
2022/02/09 20:03:37;;;;;;;21.92;4.20;;;7.10;99.90;;;5.58;100.00;101465.25;4978457;28;20033;-79
2022/02/09 20:06:07;;;;;;;19.90;3.25;;;7.10;99.90;;;5.55;100.00;101460.94;4991738;28;20044;-79
2022/02/09 20:08:44;;;;;;;12.95;3.55;;;7.00;99.90;;;5.54;100.00;101468.78;4963448;28;20053;-79
2022/02/09 20:11:16;;;;;;;14.27;3.78;;;7.00;99.90;;;5.49;100.00;101473.22;4968649;28;20501;-78
2022/02/09 20:13:50;;;;;;;15.77;4.40;;;6.90;99.90;;;5.43;100.00;101463.69;4997024;28;20039;-79
2022/02/09 20:16:20;;;;;;;22.70;3.70;;;6.90;99.90;;;5.41;100.00;101467.22;5001947;28;20037;-78
2022/02/09 20:18:49;;;;;;;18.08;3.30;;;6.90;99.90;;;5.38;100.00;101472.47;4964091;28;20027;-79
2022/02/09 20:21:17;;;;;;;18.23;3.78;;;6.80;99.90;;;5.34;100.00;101479.50;4955822;28;20042;-80
2022/02/09 20:23:43;;;;;;;18.35;3.97;;;6.80;99.90;;;5.31;100.00;101483.03;4970705;28;20045;-81
2022/02/09 20:26:18;;;;;;;24.30;3.63;;;6.80;99.90;;;5.30;100.00;101494.34;4944566;28;20055;-79
2022/02/09 20:28:52;;;;;;;23.20;3.85;;;6.70;99.90;;;5.26;100.00;101483.94;4998132;28;20045;-80
2022/02/09 20:31:26;;;;;;;23.55;4.07;;;6.70;99.90;;;5.19;100.00;101464.88;4968992;28;20104;-79
2022/02/09 20:34:04;;;;;;;13.68;4.03;;;6.70;99.90;;;5.18;100.00;101488.38;4988145;28;20072;-79
2022/02/09 20:36:34;;;;;;;21.67;3.70;;;6.70;99.90;;;5.13;100.00;101478.88;4973580;28;20041;-77
2022/02/09 20:39:11;;;;;;;28.90;3.78;;;6.60;99.90;;;5.09;100.00;101479.78;4997263;28;20040;-78
2022/02/09 20:41:42;;;;;;;21.20;3.50;;;6.60;99.90;;;5.06;100.00;101485.06;5018389;28;20032;-79
2022/02/09 20:44:21;;;;;;;15.73;3.38;;;6.50;99.90;;;5.03;100.00;101484.22;4980880;28;20071;-79
2022/02/09 20:46:52;;;;;;;17.08;3.55;;;6.50;99.90;;;4.98;100.00;101488.63;4974975;28;20034;-77
2022/02/09 20:49:21;;;;;;;26.13;4.40;;;6.40;99.90;;;4.91;100.00;101486.09;4989572;28;20037;-78
2022/02/09 20:51:55;;;;;;;18.55;4.25;;;6.40;99.90;;;4.86;100.00;101487.00;4970832;28;20036;-80
2022/02/09 20:54:24;;;;;;;23.48;4.47;;;6.40;99.90;;;4.82;100.00;101490.56;5001041;28;20122;-78
2022/02/09 20:56:50;;;;;;;14.15;4.18;;;6.30;99.90;;;4.78;100.00;101504.50;4959611;28;20120;-80
2022/02/09 20:59:17;;;;;;;15.45;4.57;;;6.30;99.90;;;4.76;100.00;101503.66;4998647;28;20119;-78
2022/02/09 21:04:13;;;;;;;19.83;4.47;;;6.20;99.90;;;4.71;100.00;101493.28;4991390;28;20077;-78
2022/02/09 21:17:33;;;;;;;20.13;4.63;;;6.10;99.90;;;4.58;100.00;101497.75;4999466;28;20088;-76
2022/02/09 21:43:06;;;;;;;24.77;6.38;;;5.70;99.90;;;4.21;100.00;101502.41;5002548;28;20021;-75
2022/02/09 21:58:32;;;;;;;29.35;6.03;;;5.70;99.90;;;4.31;100.00;101507.53;5000031;28;20044;-75
2022/02/09 22:01:31;;;;;;;19.88;6.28;;;5.80;99.90;;;4.39;100.00;101522.25;4982840;28;20099;-75
2022/02/09 22:28:55;;;;;;;31.10;7.38;;;5.80;99.90;;;4.25;100.00;101520.59;4993987;28;20072;-75
2022/02/09 22:31:41;;;;;;;30.17;6.57;;;5.70;99.90;;;4.21;100.00;101521.53;4984306;28;20124;-76
2022/02/09 22:56:03;;;;;;;25.33;6.18;;;5.70;99.90;;;4.23;100.00;101538.03;4998259;28;20048;-75
2022/02/09 22:58:34;;;;;;;30.05;6.40;;;5.70;99.90;;;4.21;100.00;101531.06;4993278;28;20479;-76
2022/02/09 23:01:32;;;;;;;29.83;6.28;;;5.60;99.90;;;4.17;100.00;101538.06;4955506;28;20032;-76
